sensor_id;sensor_type;location;lat;lon;timestamp;pressure;altitude;pressure_sealevel;temperature;humidity
43153;BME280;28756;49.064;9.290;2022-12-16T00:01:17;97908.66;;;-4.26;100.00
43153;BME280;28756;49.064;9.290;2022-12-16T00:03:52;97918.84;;;-4.28;100.00
43153;BME280;28756;49.064;9.290;2022-12-16T00:06:19;97919.63;;;-4.25;100.00
43153;BME280;28756;49.064;9.290;2022-12-16T00:08:45;97921.28;;;-4.21;100.00
43153;BME280;28756;49.064;9.290;2022-12-16T00:11:11;97921.25;;;-4.20;100.00
43153;BME280;28756;49.064;9.290;2022-12-16T00:13:38;97916.16;;;-4.18;100.00
43153;BME280;28756;49.064;9.290;2022-12-16T00:16:13;97922.13;;;-4.22;100.00
43153;BME280;28756;49.064;9.290;2022-12-16T00:18:40;97922.13;;;-4.21;100.00
43153;BME280;28756;49.064;9.290;2022-12-16T00:21:06;97935.63;;;-4.19;100.00
43153;BME280;28756;49.064;9.290;2022-12-16T00:23:33;97931.34;;;-4.15;100.00
43153;BME280;28756;49.064;9.290;2022-12-16T00:25:59;97927.94;;;-4.14;100.00
43153;BME280;28756;49.064;9.290;2022-12-16T00:28:25;97930.53;;;-4.17;100.00
43153;BME280;28756;49.064;9.290;2022-12-16T00:30:53;97923.75;;;-4.18;100.00
43153;BME280;28756;49.064;9.290;2022-12-16T00:33:21;97930.53;;;-4.17;100.00
43153;BME280;28756;49.064;9.290;2022-12-16T00:35:48;97933.03;;;-4.14;100.00
43153;BME280;28756;49.064;9.290;2022-12-16T00:38:14;97941.47;;;-4.12;100.00
43153;BME280;28756;49.064;9.290;2022-12-16T00:40:40;97933.84;;;-4.14;100.00
43153;BME280;28756;49.064;9.290;2022-12-16T00:43:06;97932.16;;;-4.12;100.00
43153;BME280;28756;49.064;9.290;2022-12-16T00:45:32;97941.50;;;-4.15;100.00
43153;BME280;28756;49.064;9.290;2022-12-16T00:47:58;97944.00;;;-4.14;100.00
43153;BME280;28756;49.064;9.290;2022-12-16T00:50:24;97944.06;;;-4.17;100.00
43153;BME280;28756;49.064;9.290;2022-12-16T00:52:50;97947.47;;;-4.18;100.00
43153;BME280;28756;49.064;9.290;2022-12-16T00:55:17;97947.44;;;-4.16;100.00
43153;BME280;28756;49.064;9.290;2022-12-16T00:57:43;97954.28;;;-4.21;100.00
43153;BME280;28756;49.064;9.290;2022-12-16T01:00:11;97958.44;;;-4.16;100.00
43153;BME280;28756;49.064;9.290;2022-12-16T01:02:42;97975.44;;;-4.21;100.00
43153;BME280;28756;49.064;9.290;2022-12-16T01:05:09;97973.69;;;-4.17;100.00
43153;BME280;28756;49.064;9.290;2022-12-16T01:07:36;97978.78;;;-4.19;100.00
43153;BME280;28756;49.064;9.290;2022-12-16T01:10:03;97972.00;;;-4.18;100.00
43153;BME280;28756;49.064;9.290;2022-12-16T01:12:29;97982.13;;;-4.15;100.00
43153;BME280;28756;49.064;9.290;2022-12-16T01:14:55;97984.69;;;-4.17;100.00
43153;BME280;28756;49.064;9.290;2022-12-16T01:17:21;97989.81;;;-4.20;100.00
43153;BME280;28756;49.064;9.290;2022-12-16T01:19:46;97994.84;;;-4.18;100.00
43153;BME280;28756;49.064;9.290;2022-12-16T01:22:12;97994.88;;;-4.20;100.00
43153;BME280;28756;49.064;9.290;2022-12-16T01:24:38;97991.50;;;-4.19;100.00
43153;BME280;28756;49.064;9.290;2022-12-16T01:27:04;97998.28;;;-4.21;100.00
43153;BME280;28756;49.064;9.290;2022-12-16T01:29:30;97998.28;;;-4.21;100.00
43153;BME280;28756;49.064;9.290;2022-12-16T01:31:55;97994.88;;;-4.20;100.00
43153;BME280;28756;49.064;9.290;2022-12-16T01:34:21;97994.09;;;-4.23;100.00
43153;BME280;28756;49.064;9.290;2022-12-16T01:36:48;97983.91;;;-4.22;100.00
43153;BME280;28756;49.064;9.290;2022-12-16T01:39:14;97987.31;;;-4.24;100.00
43153;BME280;28756;49.064;9.290;2022-12-16T01:41:39;97983.06;;;-4.22;100.00
43153;BME280;28756;49.064;9.290;2022-12-16T01:44:19;97980.50;;;-4.21;100.00
43153;BME280;28756;49.064;9.290;2022-12-16T01:46:55;97985.63;;;-4.24;100.00
43153;BME280;28756;49.064;9.290;2022-12-16T01:49:52;97985.63;;;-4.24;100.00
43153;BME280;28756;49.064;9.290;2022-12-16T01:52:24;97989.88;;;-4.23;100.00
43153;BME280;28756;49.064;9.290;2022-12-16T01:55:19;97982.25;;;-4.24;100.00
43153;BME280;28756;49.064;9.290;2022-12-16T01:57:48;97988.19;;;-4.24;100.00
43153;BME280;28756;49.064;9.290;2022-12-16T02:00:16;97989.88;;;-4.26;100.00
43153;BME280;28756;49.064;9.290;2022-12-16T02:02:43;97984.78;;;-4.24;100.00
43153;BME280;28756;49.064;9.290;2022-12-16T02:05:10;98002.53;;;-4.21;100.00
43153;BME280;28756;49.064;9.290;2022-12-16T02:08:17;98000.88;;;-4.24;100.00
43153;BME280;28756;49.064;9.290;2022-12-16T02:21:47;98005.88;;;-4.18;100.00
43153;BME280;28756;49.064;9.290;2022-12-16T02:24:46;98010.88;;;-4.13;100.00
43153;BME280;28756;49.064;9.290;2022-12-16T02:27:30;98013.44;;;-4.13;100.00
43153;BME280;28756;49.064;9.290;2022-12-16T02:38:55;98004.13;;;-4.14;100.00
43153;BME280;28756;49.064;9.290;2022-12-16T02:44:07;98006.63;;;-4.13;100.00
43153;BME280;28756;49.064;9.290;2022-12-16T02:46:40;98004.97;;;-4.12;100.00
43153;BME280;28756;49.064;9.290;2022-12-16T02:51:55;98006.59;;;-4.09;100.00
43153;BME280;28756;49.064;9.290;2022-12-16T02:54:23;97999.06;;;-4.14;100.00
43153;BME280;28756;49.064;9.290;2022-12-16T02:59:41;98006.59;;;-4.09;100.00
43153;BME280;28756;49.064;9.290;2022-12-16T03:02:24;98008.28;;;-4.08;100.00
43153;BME280;28756;49.064;9.290;2022-12-16T03:05:05;98020.94;;;-4.05;100.00
43153;BME280;28756;49.064;9.290;2022-12-16T03:07:37;98019.19;;;-4.02;100.00
43153;BME280;28756;49.064;9.290;2022-12-16T03:10:07;98020.06;;;-4.01;100.00
43153;BME280;28756;49.064;9.290;2022-12-16T03:12:36;98025.97;;;-3.99;100.00
43153;BME280;28756;49.064;9.290;2022-12-16T03:15:06;98017.47;;;-4.00;100.00
43153;BME280;28756;49.064;9.290;2022-12-16T03:17:33;98030.19;;;-4.00;100.00
43153;BME280;28756;49.064;9.290;2022-12-16T03:20:10;98037.81;;;-4.00;100.00
43153;BME280;28756;49.064;9.290;2022-12-16T03:22:38;98038.63;;;-3.98;100.00
43153;BME280;28756;49.064;9.290;2022-12-16T03:25:07;98040.31;;;-3.98;100.00
43153;BME280;28756;49.064;9.290;2022-12-16T03:30:16;98035.19;;;-3.95;100.00
43153;BME280;28756;49.064;9.290;2022-12-16T03:35:21;98038.63;;;-3.98;100.00
43153;BME280;28756;49.064;9.290;2022-12-16T03:37:52;98036.06;;;-3.96;100.00
43153;BME280;28756;49.064;9.290;2022-12-16T03:40:20;98036.03;;;-3.93;100.00
43153;BME280;28756;49.064;9.290;2022-12-16T03:42:48;98037.72;;;-3.93;100.00
43153;BME280;28756;49.064;9.290;2022-12-16T03:45:22;98041.97;;;-3.94;100.00
43153;BME280;28756;49.064;9.290;2022-12-16T03:47:51;98048.69;;;-3.90;100.00
43153;BME280;28756;49.064;9.290;2022-12-16T03:50:27;98046.13;;;-3.90;100.00
43153;BME280;28756;49.064;9.290;2022-12-16T03:52:54;98041.06;;;-3.90;100.00
43153;BME280;28756;49.064;9.290;2022-12-16T03:55:19;98057.97;;;-3.87;100.00
43153;BME280;28756;49.064;9.290;2022-12-16T03:57:45;98055.44;;;-3.87;100.00
43153;BME280;28756;49.064;9.290;2022-12-16T04:00:11;98054.56;;;-3.86;100.00
43153;BME280;28756;49.064;9.290;2022-12-16T04:02:37;98068.13;;;-3.86;100.00
43153;BME280;28756;49.064;9.290;2022-12-16T04:05:03;98063.06;;;-3.89;100.00
43153;BME280;28756;49.064;9.290;2022-12-16T04:07:29;98071.53;;;-3.88;100.00
43153;BME280;28756;49.064;9.290;2022-12-16T04:09:55;98069.78;;;-3.86;100.00
43153;BME280;28756;49.064;9.290;2022-12-16T04:12:21;98079.16;;;-3.88;100.00
43153;BME280;28756;49.064;9.290;2022-12-16T04:15:06;98072.34;;;-3.86;100.00
43153;BME280;28756;49.064;9.290;2022-12-16T04:17:51;98071.47;;;-3.82;100.00
43153;BME280;28756;49.064;9.290;2022-12-16T04:20:50;98088.34;;;-3.79;100.00
43153;BME280;28756;49.064;9.290;2022-12-16T04:23:36;98081.59;;;-3.81;100.00
43153;BME280;28756;49.064;9.290;2022-12-16T04:26:22;98079.91;;;-3.80;100.00
43153;BME280;28756;49.064;9.290;2022-12-16T04:28:48;98084.97;;;-3.82;100.00
43153;BME280;28756;49.064;9.290;2022-12-16T04:31:14;98090.91;;;-3.79;100.00
43153;BME280;28756;49.064;9.290;2022-12-16T04:33:40;98092.59;;;-3.82;100.00
43153;BME280;28756;49.064;9.290;2022-12-16T04:36:24;98093.47;;;-3.81;100.00
43153;BME280;28756;49.064;9.290;2022-12-16T04:39:08;98092.59;;;-3.80;100.00
43153;BME280;28756;49.064;9.290;2022-12-16T04:41:53;98092.59;;;-3.82;100.00
43153;BME280;28756;49.064;9.290;2022-12-16T04:44:38;98101.91;;;-3.81;100.00
43153;BME280;28756;49.064;9.290;2022-12-16T04:47:23;98107.00;;;-3.81;100.00
43153;BME280;28756;49.064;9.290;2022-12-16T04:50:08;98112.91;;;-3.78;100.00
43153;BME280;28756;49.064;9.290;2022-12-16T04:52:53;98102.72;;;-3.77;100.00
43153;BME280;28756;49.064;9.290;2022-12-16T04:55:38;98109.50;;;-3.77;100.00
43153;BME280;28756;49.064;9.290;2022-12-16T04:58:22;98112.91;;;-3.78;100.00
43153;BME280;28756;49.064;9.290;2022-12-16T05:01:06;98124.72;;;-3.76;100.00
43153;BME280;28756;49.064;9.290;2022-12-16T05:03:50;98131.53;;;-3.78;100.00
43153;BME280;28756;49.064;9.290;2022-12-16T05:06:35;98123.03;;;-3.77;100.00
43153;BME280;28756;49.064;9.290;2022-12-16T05:09:19;98128.94;;;-3.75;100.00
43153;BME280;28756;49.064;9.290;2022-12-16T05:12:04;98123.91;;;-3.78;100.00
43153;BME280;28756;49.064;9.290;2022-12-16T05:14:48;98134.06;;;-3.76;100.00
43153;BME280;28756;49.064;9.290;2022-12-16T05:17:32;98139.97;;;-3.76;100.00
43153;BME280;28756;49.064;9.290;2022-12-16T05:20:16;98140.81;;;-3.77;100.00
43153;BME280;28756;49.064;9.290;2022-12-16T05:23:00;98146.75;;;-3.75;100.00
43153;BME280;28756;49.064;9.290;2022-12-16T05:25:45;98151.84;;;-3.76;100.00
43153;BME280;28756;49.064;9.290;2022-12-16T05:28:29;98151.84;;;-3.76;100.00
43153;BME280;28756;49.064;9.290;2022-12-16T05:31:13;98161.97;;;-3.75;100.00
43153;BME280;28756;49.064;9.290;2022-12-16T05:33:58;98165.34;;;-3.74;100.00
43153;BME280;28756;49.064;9.290;2022-12-16T05:36:42;98167.91;;;-3.76;100.00
43153;BME280;28756;49.064;9.290;2022-12-16T05:39:26;98163.69;;;-3.77;100.00
43153;BME280;28756;49.064;9.290;2022-12-16T05:42:10;98172.16;;;-3.75;100.00
43153;BME280;28756;49.064;9.290;2022-12-16T05:44:54;98174.72;;;-3.76;100.00
43153;BME280;28756;49.064;9.290;2022-12-16T05:47:39;98170.50;;;-3.79;100.00
43153;BME280;28756;49.064;9.290;2022-12-16T05:50:23;98186.63;;;-3.80;100.00
43153;BME280;28756;49.064;9.290;2022-12-16T05:53:08;98186.63;;;-3.80;100.00
43153;BME280;28756;49.064;9.290;2022-12-16T05:55:53;98189.97;;;-3.79;100.00
43153;BME280;28756;49.064;9.290;2022-12-16T05:58:37;98204.41;;;-3.80;100.00
43153;BME280;28756;49.064;9.290;2022-12-16T06:01:21;98195.09;;;-3.81;100.00
43153;BME280;28756;49.064;9.290;2022-12-16T06:04:05;98202.69;;;-3.83;100.00
43153;BME280;28756;49.064;9.290;2022-12-16T06:06:49;98218.78;;;-3.81;100.00
43153;BME280;28756;49.064;9.290;2022-12-16T06:09:34;98224.72;;;-3.82;100.00
43153;BME280;28756;49.064;9.290;2022-12-16T06:12:18;98230.66;;;-3.81;100.00
43153;BME280;28756;49.064;9.290;2022-12-16T06:15:02;98229.81;;;-3.80;100.00
43153;BME280;28756;49.064;9.290;2022-12-16T06:17:48;98240.78;;;-3.79;100.00
43153;BME280;28756;49.064;9.290;2022-12-16T06:20:32;98233.16;;;-3.79;100.00
43153;BME280;28756;49.064;9.290;2022-12-16T06:23:17;98242.47;;;-3.78;100.00
43153;BME280;28756;49.064;9.290;2022-12-16T06:26:01;98236.56;;;-3.81;100.00
43153;BME280;28756;49.064;9.290;2022-12-16T06:28:46;98243.34;;;-3.81;100.00
43153;BME280;28756;49.064;9.290;2022-12-16T06:31:30;98249.28;;;-3.79;100.00
43153;BME280;28756;49.064;9.290;2022-12-16T06:34:14;98251.81;;;-3.81;100.00
43153;BME280;28756;49.064;9.290;2022-12-16T06:36:58;98259.41;;;-3.77;100.00
43153;BME280;28756;49.064;9.290;2022-12-16T06:39:43;98257.72;;;-3.75;100.00
43153;BME280;28756;49.064;9.290;2022-12-16T06:42:27;98255.16;;;-3.77;100.00
43153;BME280;28756;49.064;9.290;2022-12-16T06:45:11;98261.06;;;-3.75;100.00
43153;BME280;28756;49.064;9.290;2022-12-16T06:47:56;98266.19;;;-3.76;100.00
43153;BME280;28756;49.064;9.290;2022-12-16T06:50:40;98279.72;;;-3.76;100.00
43153;BME280;28756;49.064;9.290;2022-12-16T06:53:24;98280.56;;;-3.75;100.00
43153;BME280;28756;49.064;9.290;2022-12-16T06:56:08;98283.97;;;-3.79;100.00
43153;BME280;28756;49.064;9.290;2022-12-16T06:58:52;98297.53;;;-3.81;100.00
43153;BME280;28756;49.064;9.290;2022-12-16T07:01:36;98287.41;;;-3.82;100.00
43153;BME280;28756;49.064;9.290;2022-12-16T07:04:37;98294.19;;;-3.84;100.00
43153;BME280;28756;49.064;9.290;2022-12-16T07:07:21;98306.06;;;-3.85;100.00
43153;BME280;28756;49.064;9.290;2022-12-16T07:10:06;98310.28;;;-3.85;100.00
43153;BME280;28756;49.064;9.290;2022-12-16T07:12:50;98317.94;;;-3.88;100.00
43153;BME280;28756;49.064;9.290;2022-12-16T07:15:34;98318.81;;;-3.91;100.00
43153;BME280;28756;49.064;9.290;2022-12-16T07:18:18;98327.28;;;-3.90;100.00
43153;BME280;28756;49.064;9.290;2022-12-16T07:21:03;98334.06;;;-3.91;100.00
43153;BME280;28756;49.064;9.290;2022-12-16T07:23:48;98331.50;;;-3.89;100.00
43153;BME280;28756;49.064;9.290;2022-12-16T07:26:32;98335.72;;;-3.90;100.00
43153;BME280;28756;49.064;9.290;2022-12-16T07:29:16;98351.78;;;-3.85;100.00
43153;BME280;28756;49.064;9.290;2022-12-16T07:32:00;98339.19;;;-3.95;100.00
43153;BME280;28756;49.064;9.290;2022-12-16T07:34:44;98346.78;;;-3.94;100.00
43153;BME280;28756;49.064;9.290;2022-12-16T07:37:28;98349.31;;;-3.91;100.00
43153;BME280;28756;49.064;9.290;2022-12-16T07:40:12;98356.94;;;-3.94;100.00
43153;BME280;28756;49.064;9.290;2022-12-16T07:42:56;98356.97;;;-3.95;100.00
43153;BME280;28756;49.064;9.290;2022-12-16T07:45:40;98363.75;;;-3.99;100.00
43153;BME280;28756;49.064;9.290;2022-12-16T07:48:24;98354.41;;;-3.97;100.00
43153;BME280;28756;49.064;9.290;2022-12-16T07:51:09;98365.44;;;-4.00;100.00
43153;BME280;28756;49.064;9.290;2022-12-16T07:53:53;98364.66;;;-4.05;100.00
43153;BME280;28756;49.064;9.290;2022-12-16T07:56:37;98373.06;;;-4.00;100.00
43153;BME280;28756;49.064;9.290;2022-12-16T07:59:21;98368.81;;;-3.96;100.00
43153;BME280;28756;49.064;9.290;2022-12-16T08:02:09;98371.34;;;-3.96;100.00
43153;BME280;28756;49.064;9.290;2022-12-16T08:04:53;98373.91;;;-4.01;100.00
43153;BME280;28756;49.064;9.290;2022-12-16T08:07:41;98374.78;;;-4.03;100.00
43153;BME280;28756;49.064;9.290;2022-12-16T08:10:26;98384.06;;;-4.01;100.00
43153;BME280;28756;49.064;9.290;2022-12-16T08:13:18;98393.38;;;-3.97;100.00
43153;BME280;28756;49.064;9.290;2022-12-16T08:16:02;98398.44;;;-3.98;100.00
43153;BME280;28756;49.064;9.290;2022-12-16T08:18:47;98411.13;;;-3.93;100.00
43153;BME280;28756;49.064;9.290;2022-12-16T08:21:31;98413.66;;;-3.90;100.00
43153;BME280;28756;49.064;9.290;2022-12-16T08:24:15;98423.00;;;-3.94;100.00
43153;BME280;28756;49.064;9.290;2022-12-16T08:26:59;98414.59;;;-4.05;100.00
43153;BME280;28756;49.064;9.290;2022-12-16T08:29:43;98422.16;;;-4.01;100.00
43153;BME280;28756;49.064;9.290;2022-12-16T08:32:27;98428.09;;;-3.95;100.00
43153;BME280;28756;49.064;9.290;2022-12-16T08:35:11;98428.06;;;-3.91;100.00
43153;BME280;28756;49.064;9.290;2022-12-16T08:37:56;98446.66;;;-3.90;100.00
43153;BME280;28756;49.064;9.290;2022-12-16T08:40:44;98444.13;;;-3.89;100.00
43153;BME280;28756;49.064;9.290;2022-12-16T08:43:34;98452.56;;;-3.85;100.00
43153;BME280;28756;49.064;9.290;2022-12-16T08:46:19;98455.16;;;-3.96;100.00
43153;BME280;28756;49.064;9.290;2022-12-16T08:49:04;98458.50;;;-3.86;100.00
43153;BME280;28756;49.064;9.290;2022-12-16T08:51:49;98457.66;;;-3.84;100.00
43153;BME280;28756;49.064;9.290;2022-12-16T08:54:33;98456.84;;;-3.90;100.00
43153;BME280;28756;49.064;9.290;2022-12-16T08:57:18;98461.91;;;-3.89;100.00
43153;BME280;28756;49.064;9.290;2022-12-16T09:00:04;98467.81;;;-3.87;100.00
43153;BME280;28756;49.064;9.290;2022-12-16T09:02:58;98471.13;;;-3.74;100.00
43153;BME280;28756;49.064;9.290;2022-12-16T09:05:42;98476.19;;;-3.69;100.00
43153;BME280;28756;49.064;9.290;2022-12-16T09:08:27;98482.94;;;-3.70;100.00
43153;BME280;28756;49.064;9.290;2022-12-16T09:11:12;98470.28;;;-3.76;100.00
43153;BME280;28756;49.064;9.290;2022-12-16T09:13:56;98477.88;;;-3.74;100.00
43153;BME280;28756;49.064;9.290;2022-12-16T09:16:41;98483.78;;;-3.68;100.00
43153;BME280;28756;49.064;9.290;2022-12-16T09:19:25;98485.38;;;-3.53;100.00
43153;BME280;28756;49.064;9.290;2022-12-16T09:22:26;98490.41;;;-3.45;100.00
43153;BME280;28756;49.064;9.290;2022-12-16T09:25:11;98489.50;;;-3.38;100.00
43153;BME280;28756;49.064;9.290;2022-12-16T09:27:55;98487.84;;;-3.45;100.00
43153;BME280;28756;49.064;9.290;2022-12-16T09:30:39;98499.63;;;-3.33;100.00
43153;BME280;28756;49.064;9.290;2022-12-16T09:33:23;98494.50;;;-3.25;100.00
43153;BME280;28756;49.064;9.290;2022-12-16T09:36:08;98501.47;;;-3.49;100.00
43153;BME280;28756;49.064;9.290;2022-12-16T09:38:52;98499.00;;;-3.66;100.00
43153;BME280;28756;49.064;9.290;2022-12-16T09:42:24;98502.41;;;-3.61;100.00
43153;BME280;28756;49.064;9.290;2022-12-16T09:45:25;98504.09;;;-3.66;100.00
43153;BME280;28756;49.064;9.290;2022-12-16T09:48:57;98509.25;;;-3.77;100.00
43153;BME280;28756;49.064;9.290;2022-12-16T09:51:45;98511.69;;;-3.61;100.00
43153;BME280;28756;49.064;9.290;2022-12-16T09:54:33;98521.06;;;-3.63;100.00
43153;BME280;28756;49.064;9.290;2022-12-16T09:57:19;98522.63;;;-3.49;100.00
43153;BME280;28756;49.064;9.290;2022-12-16T10:00:16;98516.56;;;-3.30;100.00
43153;BME280;28756;49.064;9.290;2022-12-16T10:03:13;98511.44;;;-3.23;100.00
43153;BME280;28756;49.064;9.290;2022-12-16T10:22:10;98519.28;;;-2.56;100.00
43153;BME280;28756;49.064;9.290;2022-12-16T10:28:16;98517.97;;;-2.14;100.00
43153;BME280;28756;49.064;9.290;2022-12-16T10:31:13;98520.91;;;-2.47;100.00
43153;BME280;28756;49.064;9.290;2022-12-16T10:33:58;98523.63;;;-2.65;100.00
43153;BME280;28756;49.064;9.290;2022-12-16T10:36:45;98521.81;;;-2.56;100.00
43153;BME280;28756;49.064;9.290;2022-12-16T10:39:35;98526.03;;;-2.50;100.00
43153;BME280;28756;49.064;9.290;2022-12-16T10:42:29;98528.59;;;-2.51;100.00
43153;BME280;28756;49.064;9.290;2022-12-16T10:45:37;98528.00;;;-2.77;100.00
43153;BME280;28756;49.064;9.290;2022-12-16T10:48:29;98524.28;;;-2.46;100.00
43153;BME280;28756;49.064;9.290;2022-12-16T10:51:17;98519.91;;;-2.36;100.00
43153;BME280;28756;49.064;9.290;2022-12-16T10:54:41;98518.97;;;-2.26;100.00
43153;BME280;28756;49.064;9.290;2022-12-16T10:57:57;98527.22;;;-2.07;100.00
43153;BME280;28756;49.064;9.290;2022-12-16T11:00:49;98525.78;;;-2.28;100.00
43153;BME280;28756;49.064;9.290;2022-12-16T11:03:38;98527.47;;;-2.26;100.00
43153;BME280;28756;49.064;9.290;2022-12-16T11:06:39;98529.06;;;-2.17;100.00
43153;BME280;28756;49.064;9.290;2022-12-16T11:09:32;98535.03;;;-2.19;100.00
43153;BME280;28756;49.064;9.290;2022-12-16T11:12:22;98540.38;;;-2.41;100.00
43153;BME280;28756;49.064;9.290;2022-12-16T11:15:29;98531.41;;;-2.01;100.00
43153;BME280;28756;49.064;9.290;2022-12-16T11:18:19;98530.22;;;-1.76;100.00
43153;BME280;28756;49.064;9.290;2022-12-16T11:21:10;98531.88;;;-1.71;100.00
43153;BME280;28756;49.064;9.290;2022-12-16T11:27:00;98532.50;;;-1.55;100.00
43153;BME280;28756;49.064;9.290;2022-12-16T11:29:53;98532.28;;;-1.41;100.00
43153;BME280;28756;49.064;9.290;2022-12-16T11:32:56;98525.06;;;-1.13;100.00
43153;BME280;28756;49.064;9.290;2022-12-16T11:35:48;98535.78;;;-1.49;100.00
43153;BME280;28756;49.064;9.290;2022-12-16T11:38:45;98547.25;;;-1.78;100.00
43153;BME280;28756;49.064;9.290;2022-12-16T11:41:49;98542.50;;;-1.40;100.00
43153;BME280;28756;49.064;9.290;2022-12-16T11:44:44;98553.50;;;-1.36;100.00
43153;BME280;28756;49.064;9.290;2022-12-16T11:47:50;98559.50;;;-1.42;100.00
43153;BME280;28756;49.064;9.290;2022-12-16T11:50:41;98557.00;;;-1.45;100.00
43153;BME280;28756;49.064;9.290;2022-12-16T11:53:45;98556.13;;;-1.44;100.00
43153;BME280;28756;49.064;9.290;2022-12-16T11:56:38;98561.78;;;-1.83;100.00
43153;BME280;28756;49.064;9.290;2022-12-16T12:03:04;98580.22;;;-2.37;100.00
43153;BME280;28756;49.064;9.290;2022-12-16T12:09:12;98592.13;;;-2.38;100.00
43153;BME280;28756;49.064;9.290;2022-12-16T12:12:36;98585.50;;;-2.57;100.00
43153;BME280;28756;49.064;9.290;2022-12-16T12:16:03;98598.00;;;-2.32;100.00
43153;BME280;28756;49.064;9.290;2022-12-16T12:18:55;98601.44;;;-2.35;100.00
43153;BME280;28756;49.064;9.290;2022-12-16T12:22:35;98604.94;;;-2.48;100.00
43153;BME280;28756;49.064;9.290;2022-12-16T12:34:45;98611.66;;;-2.40;100.00
43153;BME280;28756;49.064;9.290;2022-12-16T12:37:41;98612.47;;;-2.36;100.00
43153;BME280;28756;49.064;9.290;2022-12-16T12:49:37;98611.75;;;-2.49;100.00
43153;BME280;28756;49.064;9.290;2022-12-16T12:58:42;98628.63;;;-2.39;100.00
43153;BME280;28756;49.064;9.290;2022-12-16T13:01:30;98626.09;;;-2.39;100.00
43153;BME280;28756;49.064;9.290;2022-12-16T13:04:21;98628.63;;;-2.40;100.00
43153;BME280;28756;49.064;9.290;2022-12-16T13:07:07;98629.50;;;-2.43;100.00
43153;BME280;28756;49.064;9.290;2022-12-16T13:10:29;98630.56;;;-2.65;100.00
43153;BME280;28756;49.064;9.290;2022-12-16T13:16:03;98639.91;;;-2.66;100.00
43153;BME280;28756;49.064;9.290;2022-12-16T13:18:48;98635.63;;;-2.64;100.00
43153;BME280;28756;49.064;9.290;2022-12-16T13:21:52;98640.56;;;-2.48;100.00
43153;BME280;28756;49.064;9.290;2022-12-16T13:24:50;98647.50;;;-2.61;100.00
43153;BME280;28756;49.064;9.290;2022-12-16T13:27:53;98646.63;;;-2.62;100.00
43153;BME280;28756;49.064;9.290;2022-12-16T13:30:38;98650.06;;;-2.64;100.00
43153;BME280;28756;49.064;9.290;2022-12-16T13:33:29;98655.09;;;-2.58;100.00
43153;BME280;28756;49.064;9.290;2022-12-16T13:36:16;98655.03;;;-2.50;100.00
43153;BME280;28756;49.064;9.290;2022-12-16T13:39:25;98659.34;;;-2.59;100.00
43153;BME280;28756;49.064;9.290;2022-12-16T13:45:34;98669.59;;;-2.68;100.00
43153;BME280;28756;49.064;9.290;2022-12-16T13:48:38;98684.78;;;-2.57;100.00
43153;BME280;28756;49.064;9.290;2022-12-16T13:54:38;98689.91;;;-2.62;100.00
43153;BME280;28756;49.064;9.290;2022-12-16T13:57:26;98686.53;;;-2.61;100.00
43153;BME280;28756;49.064;9.290;2022-12-16T14:00:22;98695.00;;;-2.60;100.00
43153;BME280;28756;49.064;9.290;2022-12-16T14:03:46;98696.69;;;-2.61;100.00
43153;BME280;28756;49.064;9.290;2022-12-16T14:06:34;98706.09;;;-2.66;100.00
43153;BME280;28756;49.064;9.290;2022-12-16T14:09:35;98716.19;;;-2.58;100.00
43153;BME280;28756;49.064;9.290;2022-12-16T14:15:58;98733.22;;;-2.66;100.00
43153;BME280;28756;49.064;9.290;2022-12-16T14:25:25;98737.56;;;-2.81;100.00
43153;BME280;28756;49.064;9.290;2022-12-16T14:31:21;98745.22;;;-2.82;100.00
43153;BME280;28756;49.064;9.290;2022-12-16T14:39:59;98756.28;;;-2.88;100.00
43153;BME280;28756;49.064;9.290;2022-12-16T14:42:44;98759.59;;;-2.78;100.00
43153;BME280;28756;49.064;9.290;2022-12-16T14:45:37;98769.78;;;-2.78;100.00
43153;BME280;28756;49.064;9.290;2022-12-16T14:48:33;98782.50;;;-2.78;100.00
43153;BME280;28756;49.064;9.290;2022-12-16T14:51:45;98780.81;;;-2.79;100.00
43153;BME280;28756;49.064;9.290;2022-12-16T14:54:42;98782.56;;;-2.84;100.00
43153;BME280;28756;49.064;9.290;2022-12-16T14:57:29;98783.41;;;-2.87;100.00
43153;BME280;28756;49.064;9.290;2022-12-16T15:00:19;98793.59;;;-2.90;100.00
43153;BME280;28756;49.064;9.290;2022-12-16T15:03:33;98793.63;;;-2.92;100.00
43153;BME280;28756;49.064;9.290;2022-12-16T15:06:38;98802.94;;;-2.94;100.00
43153;BME280;28756;49.064;9.290;2022-12-16T15:09:46;98806.38;;;-2.98;100.00
43153;BME280;28756;49.064;9.290;2022-12-16T15:12:40;98810.63;;;-3.02;100.00
43153;BME280;28756;49.064;9.290;2022-12-16T15:15:42;98817.44;;;-3.08;100.00
43153;BME280;28756;49.064;9.290;2022-12-16T15:18:43;98808.06;;;-3.03;100.00
43153;BME280;28756;49.064;9.290;2022-12-16T15:21:33;98813.16;;;-3.05;100.00
43153;BME280;28756;49.064;9.290;2022-12-16T15:24:21;98822.50;;;-3.05;100.00
43153;BME280;28756;49.064;9.290;2022-12-16T15:27:32;98827.63;;;-3.10;100.00
43153;BME280;28756;49.064;9.290;2022-12-16T15:30:46;98836.09;;;-3.12;100.00
43153;BME280;28756;49.064;9.290;2022-12-16T15:33:36;98836.13;;;-3.17;100.00
43153;BME280;28756;49.064;9.290;2022-12-16T15:36:31;98836.94;;;-3.15;100.00
43153;BME280;28756;49.064;9.290;2022-12-16T15:39:33;98842.03;;;-3.17;100.00
43153;BME280;28756;49.064;9.290;2022-12-16T15:42:30;98851.38;;;-3.20;100.00
43153;BME280;28756;49.064;9.290;2022-12-16T15:45:28;98854.78;;;-3.23;100.00
43153;BME280;28756;49.064;9.290;2022-12-16T15:48:31;98861.53;;;-3.19;100.00
43153;BME280;28756;49.064;9.290;2022-12-16T15:54:18;98875.16;;;-3.29;100.00
43153;BME280;28756;49.064;9.290;2022-12-16T15:57:27;98879.38;;;-3.31;100.00
43153;BME280;28756;49.064;9.290;2022-12-16T16:00:31;98887.00;;;-3.36;100.00
43153;BME280;28756;49.064;9.290;2022-12-16T16:03:29;98890.41;;;-3.37;100.00
43153;BME280;28756;49.064;9.290;2022-12-16T16:06:23;98890.41;;;-3.38;100.00
43153;BME280;28756;49.064;9.290;2022-12-16T16:09:29;98894.66;;;-3.37;100.00
43153;BME280;28756;49.064;9.290;2022-12-16T16:12:17;98894.63;;;-3.34;100.00
43153;BME280;28756;49.064;9.290;2022-12-16T16:15:03;98901.41;;;-3.38;100.00
43153;BME280;28756;49.064;9.290;2022-12-16T16:17:55;98905.69;;;-3.40;100.00
43153;BME280;28756;49.064;9.290;2022-12-16T16:20:40;98914.97;;;-3.39;100.00